Terminal Aerodrome Forecast
Issued by NWS

Home | Current Version | Previous Version | Text Only | Print | Product List | Glossary On
Versions: 1 2 3 4 5 6 7 8 9 10 11 12 13 14 15 16
000
FTAK31 PAJN 211140
TAFAGY
TAF
PAGY 211140Z 2112/2212 03004KT P6SM BKN150
     FM212100 22013KT P6SM SCT080 OVC150
     FM220400 22007KT P6SM OVC080
     FM220700 21010KT P6SM -RA OVC070
      AMD LTD TO CLD VIS AND WIND=

USA.gov is the U.S. government's official web portal to all federal, state and local government web resources and services.